Time;durP1;ratioP1;P1;durP2;ratioP2;P2;SDS_P1;SDS_P2;PMS_P1;PMS_P2;Temp;Humidity;BMP_temperature;BMP_pressure;BME280_temperature;BME280_humidity;BME280_pressure;Samples;Min_cycle;Max_cycle;Signal;HPM_P1;HPM_P2
2021/03/27 00:00:59;;;;;;;39.88;27.48;;;;;;;6.10;62.16;100015.11;1738070;81;21942;-39
2021/03/27 00:03:39;;;;;;;44.48;28.12;;;;;;;6.21;61.95;100010.23;1737747;81;21182;-40
2021/03/27 00:06:19;;;;;;;47.23;28.35;;;;;;;6.25;61.74;100005.80;1732921;81;21676;-40
2021/03/27 00:09:01;;;;;;;38.50;27.22;;;;;;;6.28;61.73;99999.80;1827338;77;22419;-40
2021/03/27 00:12:01;;;;;;;47.98;29.37;;;;;;;6.23;61.73;100003.19;1791088;79;21170;-40
2021/03/27 00:14:41;;;;;;;46.40;29.07;;;;;;;6.26;61.73;99999.86;1794584;77;22639;-40
2021/03/27 00:17:23;;;;;;;39.18;26.37;;;;;;;6.29;61.60;99998.70;1806998;78;21037;-40
2021/03/27 00:20:00;;;;;;;43.50;27.22;;;;;;;6.32;61.54;99992.67;1815123;78;21043;-40
2021/03/27 00:22:37;;;;;;;46.53;29.72;;;;;;;6.30;61.44;99993.52;1807464;77;21024;-40
2021/03/27 00:25:20;;;;;;;47.78;29.80;;;;;;;6.27;61.51;99994.72;1795118;77;21189;-40
2021/03/27 00:28:21;;;;;;;45.67;29.57;;;;;;;6.23;61.63;99997.25;1813280;79;21380;-40
2021/03/27 00:31:01;;;;;;;44.13;29.42;;;;;;;6.23;61.80;99997.80;1791801;77;21039;-40
2021/03/27 00:33:36;;;;;;;43.40;28.65;;;;;;;6.22;61.81;99998.36;1734532;80;21299;-41
2021/03/27 00:36:12;;;;;;;44.05;30.40;;;;;;;6.24;61.78;99993.46;1727267;81;21672;-40
2021/03/27 00:38:51;;;;;;;44.65;29.98;;;;;;;6.26;61.63;99998.52;1744628;80;21200;-41
2021/03/27 00:41:40;;;;;;;47.43;31.02;;;;;;;6.25;61.65;99998.27;1863010;76;22798;-40
2021/03/27 00:44:12;;;;;;;45.52;30.43;;;;;;;6.19;61.81;99997.65;1787971;80;21058;-40
2021/03/27 00:46:41;;;;;;;46.25;28.52;;;;;;;6.17;61.99;100002.55;1757915;78;21213;-40
2021/03/27 00:49:23;;;;;;;48.95;30.60;;;;;;;6.18;62.01;100000.09;1788685;80;22040;-40
2021/03/27 00:52:02;;;;;;;42.70;28.55;;;;;;;6.21;61.93;100004.84;1782461;79;22206;-40
2021/03/27 00:54:53;;;;;;;43.10;28.20;;;;;;;6.24;61.90;99994.80;1770360;79;21161;-40
2021/03/27 00:57:32;;;;;;;42.75;28.23;;;;;;;6.27;61.72;100008.98;1769262;80;21153;-40
2021/03/27 01:00:20;;;;;;;44.35;27.17;;;;;;;6.23;61.72;99999.95;1768728;79;21208;-41
2021/03/27 01:03:13;;;;;;;40.85;27.37;;;;;;;6.23;61.77;100003.19;1713736;78;21166;-40
2021/03/27 01:06:03;;;;;;;41.40;28.23;;;;;;;6.13;61.94;100012.91;1703178;82;21117;-40
2021/03/27 01:08:52;;;;;;;41.92;28.83;;;;;;;6.13;62.14;100005.63;1830071;78;22679;-40
2021/03/27 01:11:41;;;;;;;41.08;25.62;;;;;;;6.16;62.03;100011.72;1728544;80;21059;-42
2021/03/27 01:14:25;;;;;;;38.17;27.93;;;;;;;6.29;61.87;100004.63;1776410;79;21186;-41
2021/03/27 01:16:58;;;;;;;43.52;27.80;;;;;;;6.33;61.69;100001.55;1800570;79;21079;-41
2021/03/27 01:19:48;;;;;;;43.98;28.80;;;;;;;6.31;61.74;100004.55;1776835;79;21019;-42
2021/03/27 01:22:18;;;;;;;42.13;28.15;;;;;;;6.37;61.68;100006.53;1788615;79;21659;-41
2021/03/27 01:24:47;;;;;;;40.50;27.48;;;;;;;6.46;61.47;100005.98;1747245;79;20988;-41
2021/03/27 01:27:27;;;;;;;41.00;27.48;;;;;;;6.52;61.23;100004.17;1735433;80;21608;-41
2021/03/27 01:29:58;;;;;;;;;;;;;;;6.57;61.06;100011.86;1785265;77;21913;-41
2021/03/27 01:32:58;;;;;;;40.10;27.02;;;;;;;6.52;60.99;100004.17;1807309;79;20203;-41
2021/03/27 01:35:30;;;;;;;;;;;;;;;6.36;61.33;100007.08;1771102;79;21872;-41
2021/03/27 01:38:18;;;;;;;38.28;25.30;;;;;;;6.33;61.46;100001.55;1779088;79;20285;-41
2021/03/27 01:41:07;;;;;;;40.40;25.32;;;;;;;6.24;61.77;99995.36;1775967;79;21185;-41
2021/03/27 01:44:24;;;;;;;40.60;25.52;;;;;;;6.27;61.80;100003.59;1776179;79;21150;-42
2021/03/27 01:47:11;;;;;;;38.55;25.17;;;;;;;6.26;61.71;99998.52;1777372;79;21501;-41
2021/03/27 01:50:30;;;;;;;39.13;25.35;;;;;;;6.21;61.89;100000.80;1778070;79;21178;-41
2021/03/27 01:53:35;;;;;;;35.95;22.90;;;;;;;6.17;61.99;100002.55;1778077;79;21189;-41
2021/03/27 01:56:46;;;;;;;43.20;26.52;;;;;;;6.15;62.17;99996.67;1777835;79;21198;-41
2021/03/27 01:59:25;;;;;;;38.88;25.30;;;;;;;6.09;62.22;99997.39;1777970;79;21178;-41
2021/03/27 02:01:58;;;;;;;40.40;25.83;;;;;;;6.07;62.33;100000.94;1776561;79;21636;-41
2021/03/27 02:04:35;;;;;;;37.15;25.32;;;;;;;6.04;62.38;100006.96;1775573;79;21015;-41
2021/03/27 02:07:20;;;;;;;38.65;25.82;;;;;;;6.07;62.34;100004.19;1777787;79;22589;-42
2021/03/27 02:10:03;;;;;;;38.28;25.48;;;;;;;6.20;62.25;100005.14;1782835;79;21877;-41
2021/03/27 02:12:54;;;;;;;38.70;26.07;;;;;;;6.33;62.09;99998.30;1739885;79;22215;-42
2021/03/27 02:15:53;;;;;;;35.10;24.80;;;;;;;6.43;61.94;100003.38;1797165;79;21166;-41
2021/03/27 02:18:32;;;;;;;37.83;24.67;;;;;;;6.50;61.58;100000.99;1761843;79;21557;-41
2021/03/27 02:21:42;;;;;;;36.93;24.63;;;;;;;6.53;61.30;100013.81;1775329;80;21168;-41
2021/03/27 02:24:37;;;;;;;37.08;24.92;;;;;;;6.54;61.19;100010.57;1780234;79;25687;-41
2021/03/27 02:27:13;;;;;;;36.75;24.47;;;;;;;6.51;61.17;100013.36;1782294;79;21170;-42
2021/03/27 02:30:15;;;;;;;39.53;23.85;;;;;;;6.49;61.32;100012.87;1778314;79;21178;-42
2021/03/27 02:33:17;;;;;;;37.30;23.50;;;;;;;6.48;61.27;100012.66;1776367;79;21127;-41
2021/03/27 02:35:55;;;;;;;33.28;23.00;;;;;;;6.48;61.36;100018.04;1775380;80;21601;-41
2021/03/27 02:38:56;;;;;;;34.03;22.77;;;;;;;6.48;61.37;100018.04;1759956;79;21341;-41
2021/03/27 02:41:54;;;;;;;36.03;23.73;;;;;;;6.51;61.31;100012.01;1794016;79;21178;-41
2021/03/27 02:44:42;;;;;;;35.03;22.73;;;;;;;6.47;61.29;100015.66;1775860;79;21425;-41
2021/03/27 02:47:25;;;;;;;35.05;22.98;;;;;;;6.41;61.39;100017.70;1775677;79;21189;-41
2021/03/27 02:50:33;;;;;;;36.95;22.73;;;;;;;6.39;61.45;100017.22;1775732;79;21146;-42
2021/03/27 02:54:25;;;;;;;32.45;21.80;;;;;;;6.39;61.61;100014.52;1826301;76;23819;-41
2021/03/27 02:57:00;;;;;;;35.40;23.98;;;;;;;6.27;61.71;100011.67;1780872;79;21645;-40
2021/03/27 02:59:48;;;;;;;34.03;22.22;;;;;;;6.22;61.82;100029.87;1781217;79;22608;-40
2021/03/27 03:02:44;;;;;;;34.18;23.87;;;;;;;6.20;61.91;100022.09;1792644;77;21739;-40
2021/03/27 03:05:20;;;;;;;35.48;22.60;;;;;;;6.17;62.05;100025.97;1783283;80;21059;-40
2021/03/27 03:08:26;;;;;;;33.53;23.18;;;;;;;6.15;62.11;100024.17;1795574;77;21578;-40
2021/03/27 03:11:15;;;;;;;35.17;21.87;;;;;;;6.17;62.07;100030.02;1790408;79;21056;-40
2021/03/27 03:13:58;;;;;;;35.38;23.38;;;;;;;6.26;62.00;100026.78;1784035;77;21366;-41
2021/03/27 03:16:30;;;;;;;34.10;23.32;;;;;;;6.34;61.86;100030.83;1778917;80;21031;-40
2021/03/27 03:19:24;;;;;;;34.27;23.00;;;;;;;6.38;61.77;100023.73;1800410;78;21654;-40
2021/03/27 03:22:21;;;;;;;36.68;23.25;;;;;;;6.43;61.66;100028.17;1797569;77;21680;-41
2021/03/27 03:24:54;;;;;;;33.70;22.85;;;;;;;6.48;61.57;100030.16;1808464;77;21617;-41
2021/03/27 03:27:56;;;;;;;34.92;23.85;;;;;;;6.48;61.37;100033.41;1735340;80;21379;-40
2021/03/27 03:30:48;;;;;;;37.28;22.22;;;;;;;6.44;61.34;100030.53;1713093;83;21195;-40
2021/03/27 03:34:04;;;;;;;36.42;24.07;;;;;;;6.41;61.44;100029.83;1754093;79;21190;-40
2021/03/27 03:36:56;;;;;;;35.63;22.55;;;;;;;6.40;61.45;100026.89;1754057;81;21190;-40
2021/03/27 03:40:09;;;;;;;34.60;21.82;;;;;;;6.38;61.47;100026.42;1773669;79;21194;-41
2021/03/27 03:42:58;;;;;;;37.50;23.65;;;;;;;6.38;61.45;100033.70;1746840;80;21288;-41
2021/03/27 03:46:00;;;;;;;35.35;23.32;;;;;;;6.34;61.52;100038.91;1759976;81;21185;-40
2021/03/27 03:49:13;;;;;;;33.25;22.80;;;;;;;6.31;61.55;100031.47;1748640;80;21192;-41
2021/03/27 03:52:11;;;;;;;37.93;24.70;;;;;;;6.25;61.72;100035.41;1735456;79;21472;-40
2021/03/27 03:55:12;;;;;;;33.48;23.18;;;;;;;6.22;61.77;100040.64;1751845;80;21189;-40
2021/03/27 03:58:27;;;;;;;38.80;24.18;;;;;;;6.22;61.84;100036.59;1735883;80;21458;-41
2021/03/27 04:01:09;;;;;;;35.10;21.95;;;;;;;6.20;61.87;100037.45;1733145;81;21443;-41
2021/03/27 04:04:04;;;;;;;33.50;22.45;;;;;;;6.26;61.78;100035.66;1729343;79;21304;-40
2021/03/27 04:06:36;;;;;;;37.60;22.77;;;;;;;6.33;61.70;100032.51;1753186;81;22288;-40
2021/03/27 04:09:43;;;;;;;35.95;23.67;;;;;;;6.36;61.66;100031.32;1744579;80;21176;-41
2021/03/27 04:12:29;;;;;;;38.53;23.18;;;;;;;6.41;61.56;100033.86;1723984;83;21225;-41
2021/03/27 04:15:26;;;;;;;36.05;23.67;;;;;;;6.43;61.49;100036.25;1720744;80;21197;-41
2021/03/27 04:18:20;;;;;;;34.73;22.37;;;;;;;6.45;61.32;100035.36;1744570;80;21179;-40
2021/03/27 04:21:15;;;;;;;33.95;23.22;;;;;;;6.46;61.43;100035.61;1807545;78;24241;-41
2021/03/27 04:23:57;;;;;;;34.70;22.75;;;;;;;6.38;61.45;100034.50;1805754;79;21031;-40
2021/03/27 04:26:45;;;;;;;36.55;23.45;;;;;;;6.36;61.51;100042.09;1807477;77;21407;-40
2021/03/27 04:29:32;;;;;;;37.30;23.35;;;;;;;6.33;61.63;100040.04;1806600;77;21919;-40
2021/03/27 04:32:11;;;;;;;39.98;24.37;;;;;;;6.29;61.75;100041.78;1812439;79;21656;-40
2021/03/27 04:34:55;;;;;;;32.75;22.80;;;;;;;6.29;61.82;100045.81;1797362;77;21062;-40
2021/03/27 04:37:37;;;;;;;32.80;22.35;;;;;;;6.30;61.78;100046.58;1722128;80;21005;-40
2021/03/27 04:40:17;;;;;;;34.35;23.95;;;;;;;6.31;61.77;100050.87;1748487;82;21211;-40
2021/03/27 04:42:53;;;;;;;37.45;23.90;;;;;;;6.33;61.74;100055.41;1738220;79;21166;-39
2021/03/27 04:45:34;;;;;;;35.78;23.40;;;;;;;6.32;61.80;100047.88;1771107;80;21064;-40
2021/03/27 04:48:23;;;;;;;33.55;22.45;;;;;;;6.37;61.80;100046.92;1732118;80;21158;-39
2021/03/27 04:51:22;;;;;;;35.03;23.15;;;;;;;6.47;61.66;100047.42;1742860;82;21490;-40
2021/03/27 04:54:07;;;;;;;32.85;21.87;;;;;;;6.59;61.65;100049.48;1747946;79;21388;-40
2021/03/27 04:57:02;;;;;;;34.60;23.65;;;;;;;6.68;61.40;100054.90;1748507;79;21626;-40
2021/03/27 04:59:58;;;;;;;40.25;24.50;;;;;;;6.73;61.16;100048.01;1706842;80;21170;-42
2021/03/27 05:03:00;;;;;;;35.17;24.30;;;;;;;6.79;60.95;100055.59;1769646;79;21681;-41
2021/03/27 05:05:34;;;;;;;35.33;22.93;;;;;;;6.83;60.83;100060.59;1776696;79;21629;-41
2021/03/27 05:08:25;;;;;;;35.45;23.38;;;;;;;6.86;60.85;100065.91;1765977;79;21380;-41
2021/03/27 05:11:07;;;;;;;37.05;23.77;;;;;;;6.88;60.69;100066.38;1759403;80;21202;-41
2021/03/27 05:13:48;;;;;;;37.08;23.70;;;;;;;6.86;60.81;100065.36;1773219;80;21175;-41
2021/03/27 05:16:21;;;;;;;34.43;23.40;;;;;;;6.87;61.05;100071.55;1732077;80;21191;-41
2021/03/27 05:19:02;;;;;;;36.73;23.73;;;;;;;6.90;61.08;100076.30;1734618;81;21159;-41
2021/03/27 05:21:45;;;;;;;39.83;24.25;;;;;;;6.94;61.13;100073.20;1726474;81;22475;-41
2021/03/27 05:24:55;;;;;;;39.42;24.32;;;;;;;6.94;61.07;100072.64;1753772;80;21170;-41
2021/03/27 05:27:41;;;;;;;35.78;23.18;;;;;;;6.99;61.33;100079.78;1745799;80;21881;-41
2021/03/27 05:30:20;;;;;;;36.23;23.27;;;;;;;7.00;61.13;100080.02;1739066;80;21153;-40
2021/03/27 05:33:05;;;;;;;31.45;22.62;;;;;;;7.03;61.01;100078.03;1756173;80;21179;-42
2021/03/27 05:35:52;;;;;;;35.58;23.32;;;;;;;7.06;61.04;100082.00;1739950;81;22179;-40
2021/03/27 05:38:31;;;;;;;35.90;23.20;;;;;;;7.05;61.12;100080.41;1739513;81;21213;-41
2021/03/27 05:41:23;;;;;;;35.63;22.93;;;;;;;7.13;61.02;100085.00;1695683;81;21395;-41
2021/03/27 05:44:26;;;;;;;35.90;23.32;;;;;;;7.29;61.15;100082.05;1827681;78;22833;-40
2021/03/27 05:47:51;;;;;;;38.98;23.42;;;;;;;7.37;60.83;100085.28;1788462;79;20987;-40
2021/03/27 05:50:51;;;;;;;33.35;20.37;;;;;;;7.46;60.90;100087.96;1791239;79;22051;-41
2021/03/27 05:53:53;;;;;;;37.00;24.07;;;;;;;7.54;60.72;100083.12;1793540;77;21185;-40
2021/03/27 05:57:05;;;;;;;34.33;24.63;;;;;;;7.61;60.24;100088.80;1791362;79;21055;-40
2021/03/27 06:00:07;;;;;;;36.75;24.10;;;;;;;7.66;59.75;100085.93;1793088;79;21066;-41
2021/03/27 06:03:05;;;;;;;38.55;23.65;;;;;;;7.69;60.00;100091.50;1799237;79;21051;-40
2021/03/27 06:05:39;;;;;;;34.20;23.25;;;;;;;7.75;59.90;100088.84;1779228;79;22133;-41
2021/03/27 06:08:24;;;;;;;33.58;22.42;;;;;;;7.85;59.54;100087.70;1807579;79;21095;-41
2021/03/27 06:11:17;;;;;;;37.53;24.35;;;;;;;7.93;59.34;100091.50;1803064;77;20987;-40
2021/03/27 06:14:05;;;;;;;34.05;23.70;;;;;;;8.00;58.97;100089.86;1783296;80;21046;-40
2021/03/27 06:17:02;;;;;;;34.92;24.15;;;;;;;8.03;58.53;100088.44;1786419;77;21988;-40
2021/03/27 06:20:15;;;;;;;34.30;23.92;;;;;;;8.08;58.68;100089.61;1804691;79;22451;-40
2021/03/27 06:23:25;;;;;;;34.05;22.25;;;;;;;8.17;58.50;100093.86;1791362;79;21146;-41
2021/03/27 06:26:17;;;;;;;33.40;23.00;;;;;;;8.28;57.86;100100.45;1789723;79;21056;-41
2021/03/27 06:29:12;;;;;;;35.10;23.18;;;;;;;8.40;57.13;100099.00;1807123;79;21149;-40
2021/03/27 06:32:06;;;;;;;36.48;24.23;;;;;;;8.44;56.93;100093.17;1806881;79;21346;-40
2021/03/27 06:34:54;;;;;;;36.48;25.35;;;;;;;8.49;56.95;100098.39;1796301;79;22632;-40
2021/03/27 06:37:56;;;;;;;35.00;24.25;;;;;;;8.58;56.95;100104.52;1794489;79;21436;-40
2021/03/27 06:40:56;;;;;;;35.17;23.83;;;;;;;8.67;56.72;100099.30;1796751;79;21047;-40
2021/03/27 06:43:57;;;;;;;37.65;24.05;;;;;;;8.78;56.14;100103.76;1811218;79;21194;-41
2021/03/27 06:46:50;;;;;;;36.42;24.50;;;;;;;8.91;55.99;100109.46;1800219;79;21174;-41
2021/03/27 06:50:10;;;;;;;35.43;25.25;;;;;;;9.00;55.83;100107.51;1805872;79;21189;-41
2021/03/27 06:53:22;;;;;;;35.50;24.52;;;;;;;9.11;55.52;100111.93;1807494;79;21656;-41
2021/03/27 06:56:25;;;;;;;35.38;23.05;;;;;;;9.23;55.49;100109.30;1793595;79;21172;-41
2021/03/27 06:59:27;;;;;;;30.23;21.60;;;;;;;9.40;55.05;100112.39;1813581;78;21164;-40
2021/03/27 07:02:04;;;;;;;32.58;23.30;;;;;;;9.56;54.58;100115.50;1801073;79;21162;-40
2021/03/27 07:05:06;;;;;;;37.10;24.50;;;;;;;9.70;54.22;100117.91;1769472;79;22158;-41
2021/03/27 07:07:58;;;;;;;33.58;23.83;;;;;;;9.82;53.69;100118.51;1799739;79;21174;-41
2021/03/27 07:11:05;;;;;;;38.10;24.92;;;;;;;9.91;53.39;100116.49;1742209;81;21664;-40
2021/03/27 07:13:41;;;;;;;36.80;25.50;;;;;;;10.04;53.51;100118.87;1795668;79;22071;-40
2021/03/27 07:16:33;;;;;;;33.92;24.65;;;;;;;10.18;52.99;100115.06;1788203;77;21396;-40
2021/03/27 07:19:24;;;;;;;36.90;25.40;;;;;;;10.26;52.92;100119.61;1798642;78;21184;-41
2021/03/27 07:22:23;;;;;;;34.73;23.62;;;;;;;10.40;52.88;100111.92;1746611;80;21147;-41
2021/03/27 07:25:23;;;;;;;36.85;24.57;;;;;;;10.61;52.36;100117.99;1793359;79;21411;-41
2021/03/27 07:28:40;;;;;;;34.40;24.50;;;;;;;10.53;51.73;100071.47;1798410;79;21143;-41
2021/03/27 07:31:53;;;;;;;36.05;25.00;;;;;;;11.07;51.24;100113.16;1747713;82;21145;-39
2021/03/27 07:34:38;;;;;;;33.58;23.00;;;;;;;11.30;50.65;100114.20;1814649;79;22096;-40
2021/03/27 07:37:50;;;;;;;35.60;23.18;;;;;;;11.49;49.51;100104.84;1783896;79;21079;-39
2021/03/27 07:40:54;;;;;;;32.33;23.87;;;;;;;11.31;49.10;100067.72;1783783;79;21100;-39
2021/03/27 07:43:39;;;;;;;39.48;23.80;;;;;;;11.71;48.74;100115.13;1781997;80;21150;-40
2021/03/27 07:46:24;;;;;;;34.63;23.18;;;;;;;11.86;49.07;100118.27;1781280;79;21138;-40
2021/03/27 07:49:19;;;;;;;33.83;22.60;;;;;;;12.06;48.22;100119.92;1790771;79;21420;-40
2021/03/27 07:51:59;;;;;;;32.50;22.50;;;;;;;12.31;47.92;100117.24;1794851;79;21176;-40
2021/03/27 07:55:00;;;;;;;30.37;23.07;;;;;;;12.50;46.82;100119.23;1783900;79;21007;-39
2021/03/27 07:58:00;;;;;;;30.68;20.80;;;;;;;12.57;46.38;100118.05;1798861;79;21151;-40
2021/03/27 08:00:51;;;;;;;31.23;21.87;;;;;;;12.63;46.33;100118.00;1700848;79;21225;-41
2021/03/27 08:03:50;;;;;;;30.82;21.27;;;;;;;12.76;45.50;100117.30;1797805;79;21261;-40
2021/03/27 08:06:55;;;;;;;32.05;22.17;;;;;;;12.86;44.97;100110.73;1793034;79;21023;-39
2021/03/27 08:09:47;;;;;;;31.30;22.73;;;;;;;12.97;45.54;100115.05;1793016;77;21182;-40
2021/03/27 08:12:39;;;;;;;29.87;21.30;;;;;;;13.17;45.50;100118.01;1743549;82;21105;-40
2021/03/27 08:15:24;;;;;;;29.55;21.15;;;;;;;13.44;44.55;100121.67;1720957;82;21158;-40
2021/03/27 08:18:39;;;;;;;27.22;20.85;;;;;;;13.64;43.22;100110.97;1743626;82;21304;-39
2021/03/27 08:21:18;;;;;;;29.07;21.07;;;;;;;13.81;42.14;100109.70;1720601;83;21921;-39
2021/03/27 08:24:19;;;;;;;27.75;20.80;;;;;;;13.90;42.64;100116.48;1745377;80;20995;-39
2021/03/27 08:27:24;;;;;;;28.77;20.20;;;;;;;14.08;42.34;100105.91;1732618;82;21774;-40
2021/03/27 08:30:31;;;;;;;27.25;20.15;;;;;;;14.19;41.93;100113.66;1743771;80;21213;-40
2021/03/27 08:33:08;;;;;;;28.77;20.60;;;;;;;14.31;41.61;100107.23;1704293;83;21214;-40
2021/03/27 08:36:07;;;;;;;29.30;21.07;;;;;;;14.47;41.22;100109.86;1739513;82;21158;-40
2021/03/27 08:39:07;;;;;;;28.42;21.55;;;;;;;14.63;40.81;100107.16;1799667;79;21123;-40
2021/03/27 08:42:01;;;;;;;26.83;20.47;;;;;;;14.72;40.25;100104.16;1790059;79;21142;-40
2021/03/27 08:45:03;;;;;;;27.67;20.72;;;;;;;14.82;39.86;100104.88;1760226;79;21182;-40
2021/03/27 08:47:53;;;;;;;25.60;19.98;;;;;;;14.85;40.18;100106.11;1777845;79;21489;-40
2021/03/27 08:51:00;;;;;;;25.92;18.82;;;;;;;14.92;40.19;100107.55;1769792;79;21057;-40
2021/03/27 08:54:09;;;;;;;25.08;17.77;;;;;;;14.95;40.29;100107.62;1779162;79;20984;-40
2021/03/27 08:56:58;;;;;;;28.25;20.72;;;;;;;15.04;39.36;100097.20;1796020;79;21123;-40
2021/03/27 09:00:04;;;;;;;25.37;16.85;;;;;;;15.14;39.38;100086.20;1798536;78;21825;-40
2021/03/27 09:03:13;;;;;;;23.87;16.80;;;;;;;15.39;37.59;100099.57;1777506;79;21278;-40
2021/03/27 09:06:18;;;;;;;21.52;16.70;;;;;;;15.61;36.62;100093.77;1773595;79;21657;-40
2021/03/27 09:08:57;;;;;;;22.90;16.15;;;;;;;15.80;34.79;100092.20;1741127;81;21197;-40
2021/03/27 09:11:35;;;;;;;19.62;14.33;;;;;;;15.97;33.14;100095.69;1777124;79;21202;-40
2021/03/27 09:14:40;;;;;;;20.80;15.23;;;;;;;16.08;33.71;100086.97;1780151;79;21198;-41
2021/03/27 09:17:21;;;;;;;22.58;16.52;;;;;;;16.32;32.78;100089.70;1781064;79;21413;-40
2021/03/27 09:20:15;;;;;;;22.32;16.07;;;;;;;16.64;33.23;100094.64;1781755;79;21131;-40
2021/03/27 09:23:10;;;;;;;17.92;12.70;;;;;;;16.90;31.77;100089.69;1776560;79;21183;-40
2021/03/27 09:26:07;;;;;;;19.62;13.00;;;;;;;16.84;30.73;100087.14;1778783;78;21565;-40
2021/03/27 09:28:47;;;;;;;18.25;13.65;;;;;;;16.52;30.25;100083.38;1782819;79;21194;-41
2021/03/27 09:31:42;;;;;;;20.55;15.23;;;;;;;16.09;31.26;100089.92;1778636;78;21396;-41
2021/03/27 09:35:09;;;;;;;18.87;13.25;;;;;;;15.88;31.69;100093.83;1739340;79;21707;-40
2021/03/27 09:38:08;;;;;;;19.32;15.00;;;;;;;15.84;31.89;100088.91;1757876;79;21617;-40
2021/03/27 09:41:26;;;;;;;14.70;10.23;;;;;;;16.10;30.04;100086.61;1787662;79;21127;-40
2021/03/27 09:44:25;;;;;;;17.62;13.68;;;;;;;16.36;31.70;100093.84;1769517;79;21468;-40
2021/03/27 09:47:33;;;;;;;18.82;13.25;;;;;;;16.67;30.73;100082.34;1793599;79;21354;-40
2021/03/27 09:50:28;;;;;;;18.98;13.70;;;;;;;16.94;29.77;100087.75;1783341;78;22250;-40
2021/03/27 09:53:37;;;;;;;19.55;13.85;;;;;;;17.17;31.06;100077.09;1784194;78;21190;-40
2021/03/27 09:56:37;;;;;;;17.50;12.90;;;;;;;17.27;29.32;100077.14;1800022;79;21953;-40
2021/03/27 09:59:42;;;;;;;18.95;13.95;;;;;;;17.06;29.06;100090.75;1820580;78;22803;-40
2021/03/27 10:02:19;;;;;;;19.40;13.28;;;;;;;16.66;29.43;100087.60;1797198;77;21020;-40
2021/03/27 10:05:07;;;;;;;18.55;12.70;;;;;;;16.19;30.30;100094.48;1784405;79;21199;-40
2021/03/27 10:07:58;;;;;;;19.55;13.22;;;;;;;15.99;30.68;100093.34;1788882;77;21012;-40
2021/03/27 10:10:56;;;;;;;16.65;12.28;;;;;;;16.04;30.57;100089.48;1734180;82;21138;-40
2021/03/27 10:14:05;;;;;;;19.35;13.38;;;;;;;16.32;31.03;100087.54;1701878;82;21657;-40
2021/03/27 10:16:50;;;;;;;16.70;12.70;;;;;;;16.76;30.08;100081.41;1734256;80;21420;-40
2021/03/27 10:19:53;;;;;;;16.65;12.93;;;;;;;17.14;30.01;100076.48;1826555;76;22732;-41
2021/03/27 10:22:39;;;;;;;19.60;13.80;;;;;;;17.30;29.66;100076.35;1793048;77;22203;-40
2021/03/27 10:25:36;;;;;;;18.15;14.93;;;;;;;17.35;30.13;100082.05;1801003;79;21272;-40
2021/03/27 10:28:22;;;;;;;18.40;14.73;;;;;;;17.34;30.43;100077.73;1806453;79;21009;-40
2021/03/27 10:31:02;;;;;;;19.17;15.00;;;;;;;17.20;30.92;100074.36;1800941;79;21023;-41
2021/03/27 10:34:12;;;;;;;17.77;13.15;;;;;;;17.08;31.13;100067.87;1777030;79;21581;-40
2021/03/27 10:36:46;;;;;;;20.23;15.00;;;;;;;17.23;31.05;100064.59;1766024;77;21086;-40
2021/03/27 10:39:23;;;;;;;19.20;14.98;;;;;;;17.44;31.52;100074.23;1798994;78;21245;-40
2021/03/27 10:42:12;;;;;;;19.77;14.28;;;;;;;17.42;30.53;100069.74;1748065;81;21039;-40
2021/03/27 10:45:19;;;;;;;21.30;15.88;;;;;;;17.23;31.16;100068.09;1771443;80;21050;-40
2021/03/27 10:48:13;;;;;;;18.30;13.22;;;;;;;17.00;31.85;100072.31;1750564;80;21169;-41
2021/03/27 10:51:00;;;;;;;15.35;12.15;;;;;;;16.76;31.95;100077.30;1774035;80;21106;-40
2021/03/27 10:54:08;;;;;;;15.35;12.58;;;;;;;16.77;31.39;100070.66;1710539;80;21606;-40
2021/03/27 10:57:00;;;;;;;16.85;12.25;;;;;;;16.95;31.18;100063.88;1771080;79;21142;-40
2021/03/27 11:00:01;;;;;;;13.75;11.60;;;;;;;17.14;29.57;100062.78;1755977;80;21057;-40
2021/03/27 11:03:11;;;;;;;14.50;10.95;;;;;;;17.29;29.45;100061.66;1766117;80;22095;-40
2021/03/27 11:05:54;;;;;;;15.68;10.78;;;;;;;17.47;28.69;100057.03;1730580;80;21183;-41
2021/03/27 11:08:53;;;;;;;17.25;11.50;;;;;;;17.91;28.00;100051.20;1761268;80;21195;-41
2021/03/27 11:11:49;;;;;;;13.93;10.95;;;;;;;18.28;27.45;100058.25;1772176;80;21592;-40
2021/03/27 11:14:52;;;;;;;16.17;11.65;;;;;;;18.47;27.76;100049.02;1744749;80;21191;-40
2021/03/27 11:17:49;;;;;;;15.32;10.98;;;;;;;18.85;27.69;100053.44;1766980;79;21160;-41
2021/03/27 11:20:59;;;;;;;15.45;11.50;;;;;;;19.18;25.76;100046.02;1728449;82;21599;-41
2021/03/27 11:24:01;;;;;;;14.85;10.53;;;;;;;19.36;26.54;100043.98;1793423;79;23509;-41
2021/03/27 11:26:41;;;;;;;14.68;10.90;;;;;;;19.67;25.54;100043.59;1792590;79;21183;-41
2021/03/27 11:29:33;;;;;;;14.35;11.40;;;;;;;19.91;26.06;100039.88;1788932;79;21317;-41
2021/03/27 11:32:11;;;;;;;15.23;11.12;;;;;;;20.00;25.83;100042.16;1787214;79;21141;-41
2021/03/27 11:34:55;;;;;;;16.48;11.63;;;;;;;19.76;26.26;100034.88;1782239;79;21106;-41
2021/03/27 11:37:56;;;;;;;12.65;10.75;;;;;;;19.55;25.22;100043.30;1787410;77;22016;-41
2021/03/27 11:41:14;;;;;;;13.38;11.48;;;;;;;19.40;25.84;100040.62;1803564;77;21146;-41
2021/03/27 11:43:54;;;;;;;15.45;12.13;;;;;;;19.33;26.76;100046.14;1791419;77;21116;-40
2021/03/27 11:46:34;;;;;;;15.25;11.97;;;;;;;19.14;26.46;100047.23;1777504;79;28799;-41
2021/03/27 11:49:08;;;;;;;;;;;;;;;18.86;27.17;100053.05;1815543;79;21154;-41
2021/03/27 11:51:56;;;;;;;14.93;11.93;;;;;;;18.62;27.68;100050.58;1789824;79;21125;-41
2021/03/27 11:54:47;;;;;;;17.17;12.28;;;;;;;18.34;27.78;100047.08;1787413;79;21557;-41
2021/03/27 11:57:44;;;;;;;14.03;11.35;;;;;;;18.25;28.06;100044.72;1784027;79;21087;-41
2021/03/27 12:00:50;;;;;;;16.85;12.25;;;;;;;18.34;28.44;100040.22;1713080;79;21072;-41
2021/03/27 12:03:39;;;;;;;15.78;12.73;;;;;;;18.66;27.66;100041.73;1812044;79;21692;-41
2021/03/27 12:06:27;;;;;;;15.58;12.50;;;;;;;19.02;27.02;100042.39;1812068;79;21247;-41
2021/03/27 12:09:11;;;;;;;16.12;12.90;;;;;;;19.33;26.63;100034.36;1794473;79;21173;-41
2021/03/27 12:12:12;;;;;;;16.05;12.47;;;;;;;19.61;26.18;100034.80;1785039;79;21534;-41
2021/03/27 12:14:52;;;;;;;16.25;11.43;;;;;;;19.90;25.48;100032.80;1813237;77;21464;-41
2021/03/27 12:17:37;;;;;;;15.63;11.25;;;;;;;20.32;25.14;100030.30;1811919;77;21127;-41
2021/03/27 12:20:29;;;;;;;14.75;11.28;;;;;;;20.91;24.55;100026.50;1721123;80;21345;-41
2021/03/27 12:23:18;;;;;;;15.85;12.43;;;;;;;21.50;24.62;100028.25;1766786;79;21181;-41
2021/03/27 12:26:22;;;;;;;14.73;10.95;;;;;;;21.87;23.37;100026.70;1763713;80;21612;-41
2021/03/27 12:29:14;;;;;;;12.65;10.10;;;;;;;21.99;23.49;100027.50;1750078;80;21154;-41
2021/03/27 12:32:14;;;;;;;13.35;10.90;;;;;;;22.29;22.35;100024.42;1779176;80;21167;-41
2021/03/27 12:34:52;;;;;;;15.70;11.75;;;;;;;22.43;22.42;100021.39;1753967;80;21309;-41
2021/03/27 12:37:48;;;;;;;17.12;14.33;;;;;;;22.51;21.79;100017.31;1776428;79;21146;-41
2021/03/27 12:40:25;;;;;;;15.80;12.10;;;;;;;22.36;21.96;100017.40;1773805;79;21004;-41
2021/03/27 12:43:14;;;;;;;18.50;13.78;;;;;;;22.30;23.30;100025.39;1772811;80;21627;-41
2021/03/27 12:46:03;;;;;;;15.35;12.05;;;;;;;22.57;23.11;100014.21;1860912;76;22416;-42
2021/03/27 12:48:43;;;;;;;14.23;10.68;;;;;;;22.54;23.00;100026.91;1784746;79;21166;-41
2021/03/27 12:51:38;;;;;;;13.85;11.12;;;;;;;22.55;22.72;100023.55;1788398;79;21481;-41
2021/03/27 12:54:30;;;;;;;13.30;10.88;;;;;;;22.67;22.52;100026.27;1792662;79;21051;-41
2021/03/27 12:57:04;;;;;;;13.62;10.72;;;;;;;22.66;22.51;100023.31;1779306;77;20976;-42
2021/03/27 13:00:00;;;;;;;14.10;12.07;;;;;;;22.48;22.18;100020.91;1796576;79;21350;-41
2021/03/27 13:02:47;;;;;;;15.55;11.28;;;;;;;22.35;22.28;100019.98;1780240;80;20975;-41
2021/03/27 13:05:53;;;;;;;13.10;10.65;;;;;;;22.34;21.86;100014.27;1740725;79;21347;-42
2021/03/27 13:08:38;;;;;;;13.28;10.80;;;;;;;22.51;22.08;100022.20;1799985;79;21048;-41